LEVD Airport Information

Runway Information
Runway 05 Length 9843 ft width 197 ft
Elevation 2768 ft Threshold 0 ft Heading 45
Runway 23 Length 9843 ft Width 197 ft
Elevation 2775 ft Threshold 0 ft Heading 225
Runway 15 Length 2976 ft width 197 ft
Elevation 2770 ft Threshold 0 ft Heading 144
Runway 33 Length 2976 ft Width 197 ft
Elevation 2771 ft Threshold 0 ft Heading 324
Airport Frequencies
Type TWR Name TWR Frequency 122.2 MHZ
Airport Navaids
Type TACAN Name Valladolid Frequency 108200 KHZ
Type NDB Name Valladolid Frequency 342 KHZ
Airport Weather Information & NOTAM
ADDS - METARS form results

(1706 UTC 04 December 2021)
Data provider http://aviationweather.gov/metar/data/
 
METAR text: LEVD 041700Z 30009KT 9999 SCT040 09/01 Q1021
Conditions at: LEVD (VALLADOLID(MIL/C, ES) observed 1700 UTC 04 December 2021
Temperature: 9.0°C (48°F)
Dewpoint: 1.0°C (34°F) [RH = 57%]
Pressure (altimeter): 30.15 inches Hg (1021.0 mb)
Winds: from the WNW (300 degrees) at 10 MPH (9 knots; 4.6 m/s)
Visibility: 6 or more miles (10+ km)
Ceiling: at least 12,000 feet AGL
Clouds: scattered clouds at 4000 feet AGL
Weather: no significant weather observed at this time

METAR text: LEVD 041630Z 32007KT 9999 BKN040 09/01 Q1021
Conditions at: LEVD (VALLADOLID(MIL/C, ES) observed 1630 UTC 04 December 2021
Temperature: 9.0°C (48°F)
Dewpoint: 1.0°C (34°F) [RH = 57%]
Pressure (altimeter): 30.15 inches Hg (1021.0 mb)
Winds: from the NW (320 degrees) at 8 MPH (7 knots; 3.6 m/s)
Visibility: 6 or more miles (10+ km)
Ceiling: 4000 feet AGL
Clouds: broken clouds at 4000 feet AGL
Weather: no significant weather observed at this time

Forecast for: LEVD (VALLADOLID(MIL/C, ES)
Text: TAF LEVD 041400Z 0415/0515 28012KT 9999 FEW010 SCT025 TX13/0415Z TN00/0506Z
Forecast period: 1500 UTC 04 December 2021 to 1500 UTC 05 December 2021
Forecast type: FROM: standard forecast or significant change
Winds: from the W (280 degrees) at 14 MPH (12 knots; 6.2 m/s)
Visibility: 6 or more miles (10+ km)
Ceiling: at least 12,000 feet AGL
Clouds: few clouds at 1000 feet AGL
scattered clouds at 2500 feet AGL
Weather: no significant weather forecast for this period
Text: PROB30
Forecast period: 0000 to 0900 UTC 05 December 2021
Forecast type: TEMPORARY: The following changes expected for less than half the time period
Visibility: 1.24 miles (2.00 km)
Ceiling: 900 feet AGL
Clouds: broken clouds at 900 feet AGL
Weather: BR  (mist)
Text: TEMPO 0500/0509 2000 BR BKN009
Forecast period: 1100 to 1500 UTC 05 December 2021
Forecast type: TEMPORARY: The following changes expected for less than half the time period
Winds: from the WNW (290 degrees) at 21 MPH (18 knots; 9.3 m/s)
gusting to 32 MPH (28 knots; 14.4 m/s)
Visibility: missing
Ceiling: unknown
Clouds: missing
Weather: no significant weather forecast for this period